Jacksboro, Texas
Current Conditions -  °F | °C
As of 7:55 AM on Monday 24 Nov 2014 (Local Time) from KXBP Reporting Station
Clear Clear  
Wind Chill: 36°   Ceiling: Unl
Heat Index: 41°   Visibility: 10mi
Dew Point: 32°   Wind: 7mph
Humidity: 69%   Direction: 300°WNW
Pressure: 30.04"   Gusts: NA
Location:  33.22°N, 98.16°W
Report Text: KXBP 241355Z AUTO 30006KT 10SM CLR 05/00 A3004 RMK AO2 T00501002
Loading
Personal Weather Stations






























Interactive Weather Map New forecast layout! Learn more

10-Day Weather Forecast

Advertisements
Track Severe Weather on mobile